sensor_id;sensor_type;location;lat;lon;timestamp;P1;durP1;ratioP1;P2;durP2;ratioP2
4377;SDS011;2203;53.686;9.994;2024-02-28T00:01:15;41.23;;;24.10;;
4377;SDS011;2203;53.686;9.994;2024-02-28T00:03:41;39.13;;;23.57;;
4377;SDS011;2203;53.686;9.994;2024-02-28T00:06:06;33.33;;;21.00;;
4377;SDS011;2203;53.686;9.994;2024-02-28T00:08:32;32.70;;;21.00;;
4377;SDS011;2203;53.686;9.994;2024-02-28T00:10:57;38.77;;;23.30;;
4377;SDS011;2203;53.686;9.994;2024-02-28T00:13:23;38.80;;;23.70;;
4377;SDS011;2203;53.686;9.994;2024-02-28T00:15:49;43.80;;;26.43;;
4377;SDS011;2203;53.686;9.994;2024-02-28T00:18:15;42.93;;;25.70;;
4377;SDS011;2203;53.686;9.994;2024-02-28T00:20:41;50.20;;;25.70;;
4377;SDS011;2203;53.686;9.994;2024-02-28T00:23:06;42.63;;;25.60;;
4377;SDS011;2203;53.686;9.994;2024-02-28T00:25:31;44.57;;;27.07;;
4377;SDS011;2203;53.686;9.994;2024-02-28T00:27:57;43.17;;;26.17;;
4377;SDS011;2203;53.686;9.994;2024-02-28T00:30:22;50.00;;;28.90;;
4377;SDS011;2203;53.686;9.994;2024-02-28T00:32:48;55.50;;;29.80;;
4377;SDS011;2203;53.686;9.994;2024-02-28T00:35:13;56.97;;;32.17;;
4377;SDS011;2203;53.686;9.994;2024-02-28T00:37:39;54.70;;;30.60;;
4377;SDS011;2203;53.686;9.994;2024-02-28T00:40:05;55.40;;;31.30;;
4377;SDS011;2203;53.686;9.994;2024-02-28T00:42:31;58.00;;;31.30;;
4377;SDS011;2203;53.686;9.994;2024-02-28T00:44:57;58.43;;;29.40;;
4377;SDS011;2203;53.686;9.994;2024-02-28T00:47:23;56.10;;;30.43;;
4377;SDS011;2203;53.686;9.994;2024-02-28T00:49:48;52.93;;;29.80;;
4377;SDS011;2203;53.686;9.994;2024-02-28T00:52:14;50.70;;;29.17;;
4377;SDS011;2203;53.686;9.994;2024-02-28T00:54:39;52.77;;;30.27;;
4377;SDS011;2203;53.686;9.994;2024-02-28T00:57:04;55.37;;;30.10;;
4377;SDS011;2203;53.686;9.994;2024-02-28T00:59:30;49.27;;;28.07;;
4377;SDS011;2203;53.686;9.994;2024-02-28T01:01:55;55.37;;;28.27;;
4377;SDS011;2203;53.686;9.994;2024-02-28T01:04:21;49.33;;;28.63;;
4377;SDS011;2203;53.686;9.994;2024-02-28T01:06:46;55.63;;;29.27;;
4377;SDS011;2203;53.686;9.994;2024-02-28T01:09:11;53.47;;;29.80;;
4377;SDS011;2203;53.686;9.994;2024-02-28T01:11:37;54.50;;;30.43;;
4377;SDS011;2203;53.686;9.994;2024-02-28T01:14:03;52.60;;;29.20;;
4377;SDS011;2203;53.686;9.994;2024-02-28T01:16:29;57.50;;;30.00;;
4377;SDS011;2203;53.686;9.994;2024-02-28T01:18:55;57.03;;;29.60;;
4377;SDS011;2203;53.686;9.994;2024-02-28T01:21:20;55.67;;;29.10;;
4377;SDS011;2203;53.686;9.994;2024-02-28T01:23:45;51.87;;;28.33;;
4377;SDS011;2203;53.686;9.994;2024-02-28T01:26:11;51.43;;;28.80;;
4377;SDS011;2203;53.686;9.994;2024-02-28T01:28:37;51.70;;;28.70;;
4377;SDS011;2203;53.686;9.994;2024-02-28T01:31:02;51.47;;;27.57;;
4377;SDS011;2203;53.686;9.994;2024-02-28T01:33:28;54.83;;;29.87;;
4377;SDS011;2203;53.686;9.994;2024-02-28T01:35:53;49.93;;;26.90;;
4377;SDS011;2203;53.686;9.994;2024-02-28T01:38:18;49.97;;;28.00;;
4377;SDS011;2203;53.686;9.994;2024-02-28T01:40:47;51.77;;;27.50;;
4377;SDS011;2203;53.686;9.994;2024-02-28T01:43:12;51.83;;;29.33;;
4377;SDS011;2203;53.686;9.994;2024-02-28T01:45:38;50.77;;;28.67;;
4377;SDS011;2203;53.686;9.994;2024-02-28T01:48:04;48.57;;;27.53;;
4377;SDS011;2203;53.686;9.994;2024-02-28T01:50:35;50.37;;;28.00;;
4377;SDS011;2203;53.686;9.994;2024-02-28T01:53:02;48.53;;;28.37;;
4377;SDS011;2203;53.686;9.994;2024-02-28T01:55:27;49.80;;;26.67;;
4377;SDS011;2203;53.686;9.994;2024-02-28T01:57:53;52.83;;;28.30;;
4377;SDS011;2203;53.686;9.994;2024-02-28T02:00:19;52.07;;;27.50;;
4377;SDS011;2203;53.686;9.994;2024-02-28T02:02:45;54.03;;;28.43;;
4377;SDS011;2203;53.686;9.994;2024-02-28T02:05:10;51.80;;;28.20;;
4377;SDS011;2203;53.686;9.994;2024-02-28T02:07:36;49.47;;;26.30;;
4377;SDS011;2203;53.686;9.994;2024-02-28T02:10:01;50.57;;;28.33;;
4377;SDS011;2203;53.686;9.994;2024-02-28T02:12:27;43.90;;;25.27;;
4377;SDS011;2203;53.686;9.994;2024-02-28T02:14:52;50.03;;;26.47;;
4377;SDS011;2203;53.686;9.994;2024-02-28T02:17:18;48.33;;;26.10;;
4377;SDS011;2203;53.686;9.994;2024-02-28T02:19:43;47.50;;;25.50;;
4377;SDS011;2203;53.686;9.994;2024-02-28T02:22:09;49.90;;;25.50;;
4377;SDS011;2203;53.686;9.994;2024-02-28T02:24:35;43.73;;;23.43;;
4377;SDS011;2203;53.686;9.994;2024-02-28T02:27:02;46.50;;;25.10;;
4377;SDS011;2203;53.686;9.994;2024-02-28T02:29:29;45.20;;;24.70;;
4377;SDS011;2203;53.686;9.994;2024-02-28T02:31:55;44.80;;;23.20;;
4377;SDS011;2203;53.686;9.994;2024-02-28T02:34:20;42.43;;;23.13;;
4377;SDS011;2203;53.686;9.994;2024-02-28T02:36:45;51.60;;;25.60;;
4377;SDS011;2203;53.686;9.994;2024-02-28T02:39:11;51.13;;;26.77;;
4377;SDS011;2203;53.686;9.994;2024-02-28T02:41:36;47.07;;;24.97;;
4377;SDS011;2203;53.686;9.994;2024-02-28T02:44:02;49.03;;;25.57;;
4377;SDS011;2203;53.686;9.994;2024-02-28T02:46:27;46.20;;;24.93;;
4377;SDS011;2203;53.686;9.994;2024-02-28T02:48:53;48.03;;;25.93;;
4377;SDS011;2203;53.686;9.994;2024-02-28T02:51:18;48.33;;;24.50;;
4377;SDS011;2203;53.686;9.994;2024-02-28T02:53:44;45.23;;;24.13;;
4377;SDS011;2203;53.686;9.994;2024-02-28T02:56:10;47.93;;;23.80;;
4377;SDS011;2203;53.686;9.994;2024-02-28T02:58:35;46.17;;;24.27;;
4377;SDS011;2203;53.686;9.994;2024-02-28T03:01:00;46.03;;;23.60;;
4377;SDS011;2203;53.686;9.994;2024-02-28T03:03:26;42.67;;;23.20;;
4377;SDS011;2203;53.686;9.994;2024-02-28T03:05:51;41.17;;;22.30;;
4377;SDS011;2203;53.686;9.994;2024-02-28T03:08:17;43.67;;;21.80;;
4377;SDS011;2203;53.686;9.994;2024-02-28T03:10:42;36.87;;;20.47;;
4377;SDS011;2203;53.686;9.994;2024-02-28T03:13:07;38.20;;;20.30;;
4377;SDS011;2203;53.686;9.994;2024-02-28T03:15:33;39.53;;;20.50;;
4377;SDS011;2203;53.686;9.994;2024-02-28T03:17:59;38.30;;;20.17;;
4377;SDS011;2203;53.686;9.994;2024-02-28T03:20:24;39.00;;;21.60;;
4377;SDS011;2203;53.686;9.994;2024-02-28T03:22:50;39.60;;;20.70;;
4377;SDS011;2203;53.686;9.994;2024-02-28T03:25:16;38.40;;;21.00;;
4377;SDS011;2203;53.686;9.994;2024-02-28T03:27:41;40.67;;;20.53;;
4377;SDS011;2203;53.686;9.994;2024-02-28T03:30:06;41.10;;;20.83;;
4377;SDS011;2203;53.686;9.994;2024-02-28T03:32:32;38.77;;;19.77;;
4377;SDS011;2203;53.686;9.994;2024-02-28T03:34:58;38.60;;;19.67;;
4377;SDS011;2203;53.686;9.994;2024-02-28T03:37:23;38.63;;;19.30;;
4377;SDS011;2203;53.686;9.994;2024-02-28T03:39:48;39.57;;;20.53;;
4377;SDS011;2203;53.686;9.994;2024-02-28T03:42:14;42.90;;;22.47;;
4377;SDS011;2203;53.686;9.994;2024-02-28T03:44:39;43.33;;;20.97;;
4377;SDS011;2203;53.686;9.994;2024-02-28T03:47:05;40.97;;;21.60;;
4377;SDS011;2203;53.686;9.994;2024-02-28T03:49:30;43.33;;;21.57;;
4377;SDS011;2203;53.686;9.994;2024-02-28T03:51:55;47.03;;;24.40;;
4377;SDS011;2203;53.686;9.994;2024-02-28T03:54:21;40.93;;;20.53;;
4377;SDS011;2203;53.686;9.994;2024-02-28T03:56:46;42.70;;;21.47;;
4377;SDS011;2203;53.686;9.994;2024-02-28T03:59:11;47.87;;;23.43;;
4377;SDS011;2203;53.686;9.994;2024-02-28T04:01:37;45.90;;;23.40;;
4377;SDS011;2203;53.686;9.994;2024-02-28T04:04:02;52.70;;;24.07;;
4377;SDS011;2203;53.686;9.994;2024-02-28T04:06:28;45.97;;;23.10;;
4377;SDS011;2203;53.686;9.994;2024-02-28T04:08:53;44.73;;;23.00;;
4377;SDS011;2203;53.686;9.994;2024-02-28T04:11:19;46.33;;;22.47;;
4377;SDS011;2203;53.686;9.994;2024-02-28T04:13:45;41.93;;;22.40;;
4377;SDS011;2203;53.686;9.994;2024-02-28T04:16:10;42.83;;;22.97;;
4377;SDS011;2203;53.686;9.994;2024-02-28T04:18:36;48.30;;;23.13;;
4377;SDS011;2203;53.686;9.994;2024-02-28T04:21:02;47.33;;;23.00;;
4377;SDS011;2203;53.686;9.994;2024-02-28T04:23:27;45.27;;;21.40;;
4377;SDS011;2203;53.686;9.994;2024-02-28T04:25:53;45.20;;;22.80;;
4377;SDS011;2203;53.686;9.994;2024-02-28T04:28:18;47.60;;;22.90;;
4377;SDS011;2203;53.686;9.994;2024-02-28T04:30:43;40.30;;;21.53;;
4377;SDS011;2203;53.686;9.994;2024-02-28T04:33:09;44.30;;;21.90;;
4377;SDS011;2203;53.686;9.994;2024-02-28T04:35:34;45.80;;;22.70;;
4377;SDS011;2203;53.686;9.994;2024-02-28T04:38:00;45.13;;;21.70;;
4377;SDS011;2203;53.686;9.994;2024-02-28T04:40:25;51.20;;;21.47;;
4377;SDS011;2203;53.686;9.994;2024-02-28T04:42:50;44.80;;;21.90;;
4377;SDS011;2203;53.686;9.994;2024-02-28T04:45:16;42.07;;;21.70;;
4377;SDS011;2203;53.686;9.994;2024-02-28T04:47:41;45.57;;;22.10;;
4377;SDS011;2203;53.686;9.994;2024-02-28T04:50:07;43.23;;;22.10;;
4377;SDS011;2203;53.686;9.994;2024-02-28T04:52:33;48.93;;;22.03;;
4377;SDS011;2203;53.686;9.994;2024-02-28T04:54:58;45.10;;;21.20;;
4377;SDS011;2203;53.686;9.994;2024-02-28T04:57:24;44.60;;;22.60;;
4377;SDS011;2203;53.686;9.994;2024-02-28T04:59:49;45.80;;;21.70;;
4377;SDS011;2203;53.686;9.994;2024-02-28T05:02:14;43.07;;;21.07;;
4377;SDS011;2203;53.686;9.994;2024-02-28T05:04:40;45.37;;;20.77;;
4377;SDS011;2203;53.686;9.994;2024-02-28T05:07:05;48.93;;;22.20;;
4377;SDS011;2203;53.686;9.994;2024-02-28T05:09:32;46.97;;;22.37;;
4377;SDS011;2203;53.686;9.994;2024-02-28T05:11:58;46.30;;;23.07;;
4377;SDS011;2203;53.686;9.994;2024-02-28T05:14:23;39.77;;;21.70;;
4377;SDS011;2203;53.686;9.994;2024-02-28T05:16:49;43.70;;;21.30;;
4377;SDS011;2203;53.686;9.994;2024-02-28T05:19:15;49.43;;;22.47;;
4377;SDS011;2203;53.686;9.994;2024-02-28T05:21:43;42.23;;;21.13;;
4377;SDS011;2203;53.686;9.994;2024-02-28T05:24:09;41.33;;;20.30;;
4377;SDS011;2203;53.686;9.994;2024-02-28T05:26:35;45.07;;;22.00;;
4377;SDS011;2203;53.686;9.994;2024-02-28T05:29:02;40.20;;;21.00;;
4377;SDS011;2203;53.686;9.994;2024-02-28T05:31:28;46.70;;;22.43;;
4377;SDS011;2203;53.686;9.994;2024-02-28T05:33:54;43.90;;;22.00;;
4377;SDS011;2203;53.686;9.994;2024-02-28T05:36:24;43.10;;;21.53;;
4377;SDS011;2203;53.686;9.994;2024-02-28T05:38:51;51.20;;;22.50;;
4377;SDS011;2203;53.686;9.994;2024-02-28T05:41:18;49.80;;;23.30;;
4377;SDS011;2203;53.686;9.994;2024-02-28T05:43:43;43.13;;;21.23;;
4377;SDS011;2203;53.686;9.994;2024-02-28T05:46:09;43.73;;;20.97;;
4377;SDS011;2203;53.686;9.994;2024-02-28T05:48:35;47.40;;;23.67;;
4377;SDS011;2203;53.686;9.994;2024-02-28T05:51:00;49.40;;;23.23;;
4377;SDS011;2203;53.686;9.994;2024-02-28T05:53:26;44.67;;;22.13;;
4377;SDS011;2203;53.686;9.994;2024-02-28T05:55:52;50.93;;;24.17;;
4377;SDS011;2203;53.686;9.994;2024-02-28T05:58:22;44.27;;;22.77;;
4377;SDS011;2203;53.686;9.994;2024-02-28T06:00:50;52.30;;;23.87;;
4377;SDS011;2203;53.686;9.994;2024-02-28T06:03:16;49.77;;;23.40;;
4377;SDS011;2203;53.686;9.994;2024-02-28T06:05:41;44.33;;;22.27;;
4377;SDS011;2203;53.686;9.994;2024-02-28T06:08:07;49.07;;;23.00;;
4377;SDS011;2203;53.686;9.994;2024-02-28T06:10:32;46.23;;;22.93;;
4377;SDS011;2203;53.686;9.994;2024-02-28T06:12:57;44.70;;;22.37;;
4377;SDS011;2203;53.686;9.994;2024-02-28T06:15:23;48.83;;;24.07;;
4377;SDS011;2203;53.686;9.994;2024-02-28T06:17:48;47.43;;;22.97;;
4377;SDS011;2203;53.686;9.994;2024-02-28T06:20:13;51.13;;;24.73;;
4377;SDS011;2203;53.686;9.994;2024-02-28T06:22:39;51.40;;;22.80;;
4377;SDS011;2203;53.686;9.994;2024-02-28T06:25:05;45.17;;;23.27;;
4377;SDS011;2203;53.686;9.994;2024-02-28T06:27:33;47.30;;;23.60;;
4377;SDS011;2203;53.686;9.994;2024-02-28T06:30:01;49.53;;;24.13;;
4377;SDS011;2203;53.686;9.994;2024-02-28T06:32:28;55.30;;;26.00;;
4377;SDS011;2203;53.686;9.994;2024-02-28T06:34:53;47.80;;;23.47;;
4377;SDS011;2203;53.686;9.994;2024-02-28T06:37:19;52.40;;;25.07;;
4377;SDS011;2203;53.686;9.994;2024-02-28T06:39:45;51.43;;;24.30;;
4377;SDS011;2203;53.686;9.994;2024-02-28T06:42:11;51.63;;;24.60;;
4377;SDS011;2203;53.686;9.994;2024-02-28T06:44:36;58.60;;;24.20;;
4377;SDS011;2203;53.686;9.994;2024-02-28T06:47:01;50.70;;;24.10;;
4377;SDS011;2203;53.686;9.994;2024-02-28T06:49:27;48.50;;;23.63;;
4377;SDS011;2203;53.686;9.994;2024-02-28T06:51:52;54.17;;;26.13;;
4377;SDS011;2203;53.686;9.994;2024-02-28T06:54:18;54.37;;;27.00;;
4377;SDS011;2203;53.686;9.994;2024-02-28T06:57:01;57.77;;;25.53;;
4377;SDS011;2203;53.686;9.994;2024-02-28T06:59:27;51.03;;;25.30;;
4377;SDS011;2203;53.686;9.994;2024-02-28T07:01:53;48.10;;;23.67;;
4377;SDS011;2203;53.686;9.994;2024-02-28T07:04:19;50.17;;;23.47;;
4377;SDS011;2203;53.686;9.994;2024-02-28T07:06:44;44.93;;;22.57;;
4377;SDS011;2203;53.686;9.994;2024-02-28T07:09:10;49.43;;;24.63;;
4377;SDS011;2203;53.686;9.994;2024-02-28T07:11:37;44.77;;;22.57;;
4377;SDS011;2203;53.686;9.994;2024-02-28T07:14:02;49.80;;;24.50;;
4377;SDS011;2203;53.686;9.994;2024-02-28T07:16:29;43.03;;;22.13;;
4377;SDS011;2203;53.686;9.994;2024-02-28T07:19:10;47.90;;;22.27;;
4377;SDS011;2203;53.686;9.994;2024-02-28T07:21:35;42.20;;;20.77;;
4377;SDS011;2203;53.686;9.994;2024-02-28T07:24:01;36.70;;;20.03;;
4377;SDS011;2203;53.686;9.994;2024-02-28T07:26:27;40.23;;;19.93;;
4377;SDS011;2203;53.686;9.994;2024-02-28T07:28:53;37.13;;;19.77;;
4377;SDS011;2203;53.686;9.994;2024-02-28T07:31:18;36.13;;;18.17;;
4377;SDS011;2203;53.686;9.994;2024-02-28T07:33:45;32.57;;;17.87;;
4377;SDS011;2203;53.686;9.994;2024-02-28T07:36:10;35.07;;;16.73;;
4377;SDS011;2203;53.686;9.994;2024-02-28T07:38:36;35.00;;;17.80;;
4377;SDS011;2203;53.686;9.994;2024-02-28T07:41:06;35.10;;;17.13;;
4377;SDS011;2203;53.686;9.994;2024-02-28T07:43:31;36.10;;;18.30;;
4377;SDS011;2203;53.686;9.994;2024-02-28T07:46:01;38.60;;;16.87;;
4377;SDS011;2203;53.686;9.994;2024-02-28T07:48:27;35.93;;;17.37;;
4377;SDS011;2203;53.686;9.994;2024-02-28T07:50:52;34.67;;;17.30;;
4377;SDS011;2203;53.686;9.994;2024-02-28T07:53:18;31.13;;;17.10;;
4377;SDS011;2203;53.686;9.994;2024-02-28T07:55:43;29.97;;;17.00;;
4377;SDS011;2203;53.686;9.994;2024-02-28T07:58:10;31.13;;;16.07;;
4377;SDS011;2203;53.686;9.994;2024-02-28T08:00:35;35.00;;;17.37;;
4377;SDS011;2203;53.686;9.994;2024-02-28T08:03:01;30.60;;;15.87;;
4377;SDS011;2203;53.686;9.994;2024-02-28T08:05:26;41.03;;;17.10;;
4377;SDS011;2203;53.686;9.994;2024-02-28T08:07:52;34.40;;;15.60;;
4377;SDS011;2203;53.686;9.994;2024-02-28T08:10:17;33.80;;;17.33;;
4377;SDS011;2203;53.686;9.994;2024-02-28T08:12:42;31.67;;;16.30;;
4377;SDS011;2203;53.686;9.994;2024-02-28T08:15:08;30.67;;;16.67;;
4377;SDS011;2203;53.686;9.994;2024-02-28T08:17:34;34.47;;;17.60;;
4377;SDS011;2203;53.686;9.994;2024-02-28T08:20:01;35.03;;;18.23;;
4377;SDS011;2203;53.686;9.994;2024-02-28T08:22:29;39.40;;;20.00;;
4377;SDS011;2203;53.686;9.994;2024-02-28T08:24:55;43.27;;;20.77;;
4377;SDS011;2203;53.686;9.994;2024-02-28T08:27:20;40.13;;;20.80;;
4377;SDS011;2203;53.686;9.994;2024-02-28T08:29:48;44.73;;;20.67;;
4377;SDS011;2203;53.686;9.994;2024-02-28T08:32:14;41.10;;;21.00;;
4377;SDS011;2203;53.686;9.994;2024-02-28T08:34:42;43.07;;;20.97;;
4377;SDS011;2203;53.686;9.994;2024-02-28T08:37:09;51.27;;;24.60;;
4377;SDS011;2203;53.686;9.994;2024-02-28T08:39:34;46.87;;;20.60;;
4377;SDS011;2203;53.686;9.994;2024-02-28T08:41:59;49.20;;;23.83;;
4377;SDS011;2203;53.686;9.994;2024-02-28T08:44:25;44.40;;;22.30;;
4377;SDS011;2203;53.686;9.994;2024-02-28T08:46:56;44.57;;;20.93;;
4377;SDS011;2203;53.686;9.994;2024-02-28T08:49:22;48.13;;;23.93;;
4377;SDS011;2203;53.686;9.994;2024-02-28T08:51:48;45.03;;;23.23;;
4377;SDS011;2203;53.686;9.994;2024-02-28T08:54:14;45.23;;;23.73;;
4377;SDS011;2203;53.686;9.994;2024-02-28T08:56:39;46.13;;;23.47;;
4377;SDS011;2203;53.686;9.994;2024-02-28T08:59:05;47.90;;;23.47;;
4377;SDS011;2203;53.686;9.994;2024-02-28T09:01:31;46.70;;;23.97;;
4377;SDS011;2203;53.686;9.994;2024-02-28T09:03:58;45.50;;;23.40;;
4377;SDS011;2203;53.686;9.994;2024-02-28T09:06:24;49.77;;;25.30;;
4377;SDS011;2203;53.686;9.994;2024-02-28T09:08:50;48.37;;;24.43;;
4377;SDS011;2203;53.686;9.994;2024-02-28T09:11:16;47.30;;;23.20;;
4377;SDS011;2203;53.686;9.994;2024-02-28T09:13:41;44.07;;;21.93;;
4377;SDS011;2203;53.686;9.994;2024-02-28T09:16:07;49.40;;;23.67;;
4377;SDS011;2203;53.686;9.994;2024-02-28T09:18:32;50.50;;;25.57;;
4377;SDS011;2203;53.686;9.994;2024-02-28T09:20:58;45.17;;;22.83;;
4377;SDS011;2203;53.686;9.994;2024-02-28T09:23:23;45.40;;;22.60;;
4377;SDS011;2203;53.686;9.994;2024-02-28T09:25:49;46.10;;;23.07;;
4377;SDS011;2203;53.686;9.994;2024-02-28T09:28:14;46.83;;;23.53;;
4377;SDS011;2203;53.686;9.994;2024-02-28T09:30:41;44.40;;;22.50;;
4377;SDS011;2203;53.686;9.994;2024-02-28T09:33:07;51.73;;;24.07;;
4377;SDS011;2203;53.686;9.994;2024-02-28T09:35:34;42.90;;;22.50;;
4377;SDS011;2203;53.686;9.994;2024-02-28T09:38:02;50.30;;;23.77;;
4377;SDS011;2203;53.686;9.994;2024-02-28T09:40:28;45.50;;;23.30;;
4377;SDS011;2203;53.686;9.994;2024-02-28T09:42:56;46.00;;;22.97;;
4377;SDS011;2203;53.686;9.994;2024-02-28T09:45:25;46.97;;;22.63;;
4377;SDS011;2203;53.686;9.994;2024-02-28T09:47:51;43.53;;;22.17;;
4377;SDS011;2203;53.686;9.994;2024-02-28T09:50:17;43.50;;;21.87;;
4377;SDS011;2203;53.686;9.994;2024-02-28T09:52:44;50.63;;;19.40;;
4377;SDS011;2203;53.686;9.994;2024-02-28T09:55:09;44.00;;;20.57;;
4377;SDS011;2203;53.686;9.994;2024-02-28T09:57:35;45.77;;;20.63;;
4377;SDS011;2203;53.686;9.994;2024-02-28T10:00:01;41.67;;;21.27;;
4377;SDS011;2203;53.686;9.994;2024-02-28T10:02:27;43.57;;;20.80;;
4377;SDS011;2203;53.686;9.994;2024-02-28T10:04:53;43.80;;;19.53;;
4377;SDS011;2203;53.686;9.994;2024-02-28T10:07:19;38.67;;;19.20;;
4377;SDS011;2203;53.686;9.994;2024-02-28T10:09:44;39.50;;;20.00;;
4377;SDS011;2203;53.686;9.994;2024-02-28T10:12:10;35.80;;;19.67;;
4377;SDS011;2203;53.686;9.994;2024-02-28T10:14:35;33.00;;;17.77;;
4377;SDS011;2203;53.686;9.994;2024-02-28T10:17:00;35.77;;;19.60;;
4377;SDS011;2203;53.686;9.994;2024-02-28T10:19:26;36.23;;;18.03;;
4377;SDS011;2203;53.686;9.994;2024-02-28T10:21:51;40.27;;;18.67;;
4377;SDS011;2203;53.686;9.994;2024-02-28T10:24:17;42.27;;;17.87;;
4377;SDS011;2203;53.686;9.994;2024-02-28T10:26:46;33.13;;;17.63;;
4377;SDS011;2203;53.686;9.994;2024-02-28T10:29:20;34.33;;;18.10;;
4377;SDS011;2203;53.686;9.994;2024-02-28T10:31:46;38.00;;;18.77;;
4377;SDS011;2203;53.686;9.994;2024-02-28T10:34:12;37.27;;;18.20;;
4377;SDS011;2203;53.686;9.994;2024-02-28T10:36:40;40.27;;;19.63;;
4377;SDS011;2203;53.686;9.994;2024-02-28T10:39:06;40.10;;;19.87;;
4377;SDS011;2203;53.686;9.994;2024-02-28T10:41:34;45.70;;;19.13;;
4377;SDS011;2203;53.686;9.994;2024-02-28T10:44:00;37.07;;;18.00;;
4377;SDS011;2203;53.686;9.994;2024-02-28T10:46:26;39.60;;;18.73;;
4377;SDS011;2203;53.686;9.994;2024-02-28T10:48:52;37.27;;;17.97;;
4377;SDS011;2203;53.686;9.994;2024-02-28T10:51:20;34.60;;;18.47;;
4377;SDS011;2203;53.686;9.994;2024-02-28T10:53:49;37.63;;;16.97;;
4377;SDS011;2203;53.686;9.994;2024-02-28T10:56:17;36.67;;;19.10;;
4377;SDS011;2203;53.686;9.994;2024-02-28T10:58:51;37.40;;;17.60;;
4377;SDS011;2203;53.686;9.994;2024-02-28T11:01:20;38.27;;;16.90;;
4377;SDS011;2203;53.686;9.994;2024-02-28T11:03:46;27.43;;;14.57;;
4377;SDS011;2203;53.686;9.994;2024-02-28T11:06:16;33.33;;;12.90;;
4377;SDS011;2203;53.686;9.994;2024-02-28T11:08:46;35.43;;;15.00;;
4377;SDS011;2203;53.686;9.994;2024-02-28T11:11:18;30.80;;;16.43;;
4377;SDS011;2203;53.686;9.994;2024-02-28T11:13:52;49.93;;;17.63;;
4377;SDS011;2203;53.686;9.994;2024-02-28T11:16:25;35.23;;;17.60;;
4377;SDS011;2203;53.686;9.994;2024-02-28T11:18:54;35.23;;;16.80;;
4377;SDS011;2203;53.686;9.994;2024-02-28T11:21:22;33.73;;;16.63;;
4377;SDS011;2203;53.686;9.994;2024-02-28T11:23:48;35.60;;;17.40;;
4377;SDS011;2203;53.686;9.994;2024-02-28T11:26:13;35.17;;;17.03;;
4377;SDS011;2203;53.686;9.994;2024-02-28T11:28:39;37.87;;;18.13;;
4377;SDS011;2203;53.686;9.994;2024-02-28T11:31:05;40.47;;;18.93;;
4377;SDS011;2203;53.686;9.994;2024-02-28T11:33:30;44.77;;;19.83;;
4377;SDS011;2203;53.686;9.994;2024-02-28T11:35:58;42.30;;;18.43;;
4377;SDS011;2203;53.686;9.994;2024-02-28T11:38:24;37.80;;;17.90;;
4377;SDS011;2203;53.686;9.994;2024-02-28T11:40:53;39.80;;;19.30;;
4377;SDS011;2203;53.686;9.994;2024-02-28T11:43:18;42.30;;;20.57;;
4377;SDS011;2203;53.686;9.994;2024-02-28T11:45:44;38.80;;;19.00;;
4377;SDS011;2203;53.686;9.994;2024-02-28T11:48:12;41.97;;;18.03;;
4377;SDS011;2203;53.686;9.994;2024-02-28T11:50:39;35.87;;;16.90;;
4377;SDS011;2203;53.686;9.994;2024-02-28T11:53:05;35.10;;;16.80;;
4377;SDS011;2203;53.686;9.994;2024-02-28T11:55:31;35.30;;;16.60;;
4377;SDS011;2203;53.686;9.994;2024-02-28T11:57:57;41.47;;;17.10;;
4377;SDS011;2203;53.686;9.994;2024-02-28T12:00:22;33.23;;;17.27;;
4377;SDS011;2203;53.686;9.994;2024-02-28T12:02:48;36.47;;;17.93;;
4377;SDS011;2203;53.686;9.994;2024-02-28T12:05:14;37.40;;;17.97;;
4377;SDS011;2203;53.686;9.994;2024-02-28T12:07:39;40.70;;;18.83;;
4377;SDS011;2203;53.686;9.994;2024-02-28T12:10:05;37.83;;;19.00;;
4377;SDS011;2203;53.686;9.994;2024-02-28T12:12:33;47.83;;;19.67;;
4377;SDS011;2203;53.686;9.994;2024-02-28T12:14:59;40.77;;;19.53;;
4377;SDS011;2203;53.686;9.994;2024-02-28T12:17:25;37.10;;;16.73;;
4377;SDS011;2203;53.686;9.994;2024-02-28T12:19:51;32.90;;;16.27;;
4377;SDS011;2203;53.686;9.994;2024-02-28T12:22:16;40.30;;;17.63;;
4377;SDS011;2203;53.686;9.994;2024-02-28T12:24:42;36.30;;;17.10;;
4377;SDS011;2203;53.686;9.994;2024-02-28T12:27:07;34.63;;;15.60;;
4377;SDS011;2203;53.686;9.994;2024-02-28T12:29:33;34.20;;;18.67;;
4377;SDS011;2203;53.686;9.994;2024-02-28T12:31:58;31.10;;;15.67;;
4377;SDS011;2203;53.686;9.994;2024-02-28T12:34:24;38.47;;;19.07;;
4377;SDS011;2203;53.686;9.994;2024-02-28T12:36:49;38.70;;;18.53;;
4377;SDS011;2203;53.686;9.994;2024-02-28T12:39:14;37.93;;;17.47;;
4377;SDS011;2203;53.686;9.994;2024-02-28T12:41:40;43.17;;;19.60;;
4377;SDS011;2203;53.686;9.994;2024-02-28T12:44:06;33.63;;;16.70;;
4377;SDS011;2203;53.686;9.994;2024-02-28T12:46:32;37.70;;;15.27;;
4377;SDS011;2203;53.686;9.994;2024-02-28T12:48:58;32.23;;;15.57;;
4377;SDS011;2203;53.686;9.994;2024-02-28T12:54:02;43.13;;;16.40;;
4377;SDS011;2203;53.686;9.994;2024-02-28T12:56:27;35.47;;;16.00;;
4377;SDS011;2203;53.686;9.994;2024-02-28T12:58:53;41.10;;;15.90;;
4377;SDS011;2203;53.686;9.994;2024-02-28T13:01:18;35.50;;;16.23;;
4377;SDS011;2203;53.686;9.994;2024-02-28T13:03:44;34.43;;;15.70;;
4377;SDS011;2203;53.686;9.994;2024-02-28T13:06:09;33.80;;;15.97;;
4377;SDS011;2203;53.686;9.994;2024-02-28T13:08:34;32.27;;;15.63;;
4377;SDS011;2203;53.686;9.994;2024-02-28T13:11:00;38.33;;;16.70;;
4377;SDS011;2203;53.686;9.994;2024-02-28T13:13:26;36.80;;;16.43;;
4377;SDS011;2203;53.686;9.994;2024-02-28T13:15:51;36.63;;;16.10;;
4377;SDS011;2203;53.686;9.994;2024-02-28T13:18:16;39.50;;;13.93;;
4377;SDS011;2203;53.686;9.994;2024-02-28T13:20:42;35.80;;;16.73;;
4377;SDS011;2203;53.686;9.994;2024-02-28T13:23:07;35.03;;;16.37;;
4377;SDS011;2203;53.686;9.994;2024-02-28T13:25:33;35.07;;;16.20;;
4377;SDS011;2203;53.686;9.994;2024-02-28T13:27:58;33.97;;;16.03;;
4377;SDS011;2203;53.686;9.994;2024-02-28T13:30:24;36.53;;;15.90;;
4377;SDS011;2203;53.686;9.994;2024-02-28T13:32:50;34.20;;;13.90;;
4377;SDS011;2203;53.686;9.994;2024-02-28T13:35:16;39.97;;;15.30;;
4377;SDS011;2203;53.686;9.994;2024-02-28T13:37:41;45.00;;;15.97;;
4377;SDS011;2203;53.686;9.994;2024-02-28T13:40:07;38.50;;;15.10;;
4377;SDS011;2203;53.686;9.994;2024-02-28T13:42:35;39.90;;;15.60;;
4377;SDS011;2203;53.686;9.994;2024-02-28T13:45:01;34.93;;;15.13;;
4377;SDS011;2203;53.686;9.994;2024-02-28T13:47:26;35.10;;;14.13;;
4377;SDS011;2203;53.686;9.994;2024-02-28T13:49:52;40.63;;;16.50;;
4377;SDS011;2203;53.686;9.994;2024-02-28T13:52:17;34.77;;;15.63;;
4377;SDS011;2203;53.686;9.994;2024-02-28T13:54:42;37.20;;;15.30;;
4377;SDS011;2203;53.686;9.994;2024-02-28T13:57:10;44.27;;;16.83;;
4377;SDS011;2203;53.686;9.994;2024-02-28T13:59:35;37.70;;;15.47;;
4377;SDS011;2203;53.686;9.994;2024-02-28T14:02:01;36.60;;;16.27;;
4377;SDS011;2203;53.686;9.994;2024-02-28T14:04:29;35.10;;;15.80;;
4377;SDS011;2203;53.686;9.994;2024-02-28T14:06:55;38.97;;;16.40;;
4377;SDS011;2203;53.686;9.994;2024-02-28T14:09:21;40.60;;;15.17;;
4377;SDS011;2203;53.686;9.994;2024-02-28T14:11:46;38.90;;;16.80;;
4377;SDS011;2203;53.686;9.994;2024-02-28T14:14:12;38.90;;;16.70;;
4377;SDS011;2203;53.686;9.994;2024-02-28T14:16:37;38.17;;;15.93;;
4377;SDS011;2203;53.686;9.994;2024-02-28T14:19:03;40.83;;;16.80;;
4377;SDS011;2203;53.686;9.994;2024-02-28T14:21:29;42.20;;;17.20;;
4377;SDS011;2203;53.686;9.994;2024-02-28T14:23:54;36.23;;;17.70;;
4377;SDS011;2203;53.686;9.994;2024-02-28T14:26:20;36.87;;;17.60;;
4377;SDS011;2203;53.686;9.994;2024-02-28T14:28:45;42.43;;;17.47;;
4377;SDS011;2203;53.686;9.994;2024-02-28T14:31:10;33.43;;;15.83;;
4377;SDS011;2203;53.686;9.994;2024-02-28T14:33:36;40.27;;;17.20;;
4377;SDS011;2203;53.686;9.994;2024-02-28T14:36:01;50.47;;;16.77;;
4377;SDS011;2203;53.686;9.994;2024-02-28T14:38:30;37.57;;;16.23;;
4377;SDS011;2203;53.686;9.994;2024-02-28T14:40:56;34.60;;;15.80;;
4377;SDS011;2203;53.686;9.994;2024-02-28T14:43:21;33.07;;;14.70;;